This is the latest recevied weather packets stored in our database for station/object K6CED. If no packets are shown the sender has not sent any weather packets the latest 10 day(s).
| Time | Temp. | Humidity | Pressure | Rain* | Wind** | Luminosity | Snow |
|---|---|---|---|---|---|---|---|
| 1787761153 | 30.56° C | 51% | 1015.8 hPa | 0 mm | - | 496 W/m² | - |
| 1787760852 | 30° C | 52% | 1015.8 hPa | 0 mm | - | 482 W/m² | - |
| 1787760550 | 29.44° C | 52% | 1015.7 hPa | 0 mm | - | 463 W/m² | - |
| 1787760240 | 29.44° C | 52% | 1016 hPa | 0 mm | - | 371 W/m² | - |
| 1787759936 | 29.44° C | 51% | 1015.7 hPa | 0 mm | - | 433 W/m² | - |
| 1787759631 | 30° C | 50% | 1016 hPa | 0 mm | - | 412 W/m² | - |
| 1787759322 | 29.44° C | 52% | 1015.8 hPa | 0 mm | - | 393 W/m² | - |
| 1787759021 | 29.44° C | 52% | 1015.8 hPa | 0 mm | - | 376 W/m² | - |
| 1787758716 | 29.44° C | 52% | 1015.7 hPa | 0 mm | - | 355 W/m² | - |
| 1787758412 | 28.89° C | 53% | 1015.6 hPa | 0 mm | - | 335 W/m² | - |
| 1787758110 | 28.89° C | 53% | 1015.7 hPa | 0 mm | - | 316 W/m² | - |
| 1787757806 | 27.78° C | 54% | 1015.7 hPa | 0 mm | - | 296 W/m² | - |
| 1787757502 | 27.22° C | 55% | 1015.6 hPa | 0 mm | - | 278 W/m² | - |
| 1787757196 | 27.78° C | 55% | 1015.5 hPa | 0 mm | - | 257 W/m² | - |
| 1787756894 | 28.33° C | 52% | 1015.6 hPa | 0 mm | - | 238 W/m² | - |
| 1787756591 | 27.22° C | 55% | 1015.5 hPa | 0 mm | - | 219 W/m² | - |
| 1787756289 | 26.11° C | 57% | 1015.5 hPa | 0 mm | - | 206 W/m² | - |
| 1787755984 | 26.67° C | 57% | 1015.4 hPa | 0 mm | - | 194 W/m² | - |
| 1787755684 | 26.11° C | 58% | 1015.5 hPa | 0 mm | - | 178 W/m² | - |
| 1787755379 | 25.56° C | 59% | 1015.4 hPa | 0 mm | - | 164 W/m² | - |
| 1787755077 | 25° C | 59% | 1015.4 hPa | 0 mm | - | 148 W/m² | - |
| 1787754772 | 24.44° C | 61% | 1015.3 hPa | 0 mm | - | 131 W/m² | - |
| 1787754470 | 23.33° C | 63% | 1014.9 hPa | 0 mm | - | 115 W/m² | - |
| 1787754165 | 22.78° C | 65% | 1015.1 hPa | 0 mm | - | 95 W/m² | - |
| 1787753860 | 21.67° C | 68% | 1015.1 hPa | 0 mm | - | 81 W/m² | - |
* Rain latest hour (hover to see other rain measurements)
** Current wind speed in m/s (hover to see current wind gust speed)